WetterOnline ( https://www.wetteronline.de )

Wetter aktuell Berlin

Aktuelles Wetter: Berlin-Tempelhof (49m)

6-stündlich | Neueste Meldungen
Ortszeit Temperatur Wetter
Do, 06.10. 2:00 15.6° C wolkenlos
Mi, 05.10. 20:00 15.9° C wolkenlos
Mi, 05.10. 14:00 17.8° C bedeckt
Mi, 05.10. 8:00 10.3° C bedeckt
Mi, 05.10. 2:00 11.1° C wolkig
Di, 04.10. 20:00 14.3° C leicht bewölkt
Di, 04.10. 14:00 15.7° C bewölkt
Di, 04.10. 8:00 12.1° C bewölkt
Ortszeit Temperatur Wetter
Do, 06.10. 6:30 16.0° C bewölkt
Do, 06.10. 6:20 16.0° C bewölkt
Do, 06.10. 6:10 15.7° C bedeckt
Do, 06.10. 6:00 15.7° C leichter Regen
Do, 06.10. 5:50 15.7° C leichter Regen
Do, 06.10. 5:40 15.7° C bewölkt
Do, 06.10. 5:30 15.6° C bewölkt
Do, 06.10. 5:00 15.5° C leicht bewölkt
Do, 06.10. 4:30 15.7° C leicht bewölkt
Do, 06.10. 4:00 16.4° C wolkig
Do, 06.10. 3:30 16.4° C bedeckt
Ortszeit Relative Feuchte Sichtweite
Do, 06.10. 2:00 78% 55 km
Mi, 05.10. 20:00 72% >70 km
Mi, 05.10. 14:00 64% 60 km
Mi, 05.10. 8:00 84% 45 km
Mi, 05.10. 2:00 82% 50 km
Di, 04.10. 20:00 74% 50 km
Di, 04.10. 14:00 71% 45 km
Di, 04.10. 8:00 85% 40 km
Ortszeit Relative Feuchte Sichtweite
Do, 06.10. 6:30 80% 55 km
Do, 06.10. 6:20 80% -
Do, 06.10. 6:10 84% -
Do, 06.10. 6:00 82% 10 km
Do, 06.10. 5:50 82% -
Do, 06.10. 5:40 81% -
Do, 06.10. 5:30 81% 50 km
Do, 06.10. 5:00 81% 50 km
Do, 06.10. 4:30 80% 60 km
Do, 06.10. 4:00 77% 60 km
Do, 06.10. 3:30 77% 60 km
Ortszeit Niederschlagsmenge Niederschlagsart
Do, 06.10. 2:00 0.0 l/m2 in 6 Std. -
Mi, 05.10. 20:00 0.0 l/m2 in 12 Std. -
Mi, 05.10. 14:00 0.0 l/m2 in 6 Std. -
Mi, 05.10. 8:00 0.0 l/m2 in 12 Std. -
Mi, 05.10. 2:00 0.0 l/m2 in 6 Std. -
Di, 04.10. 20:00 0.0 l/m2 in 12 Std. -
Di, 04.10. 14:00 0.0 l/m2 in 6 Std. -
Di, 04.10. 8:00 0.1 l/m2 in 12 Std. -
Ortszeit Niederschlagsmenge Niederschlagsart
Do, 06.10. 6:30 <0.05 l/m2 in 1 Std. Schneeregen
Do, 06.10. 6:20 keine Meldung -
Do, 06.10. 6:10 keine Meldung -
Do, 06.10. 6:00 <0.05 l/m2 in 1 Std. Regen
Do, 06.10. 5:50 keine Meldung -
Do, 06.10. 5:40 keine Meldung -
Do, 06.10. 5:30 0.0 l/m2 in 1 Std. -
Do, 06.10. 5:00 0.0 l/m2 in 1 Std. -
Do, 06.10. 4:30 0.0 l/m2 in 1 Std. -
Do, 06.10. 4:00 0.0 l/m2 in 1 Std. -
Do, 06.10. 3:30 0.0 l/m2 in 1 Std. -
Ortszeit Stärke Spitze Richtung
km/h Bft. km/h Grad Sektor
Do, 06.10. 2:00 13 3 24 220° SW
Mi, 05.10. 20:00 6 1 35 180° S
Mi, 05.10. 14:00 18 3 32 210° SW
Mi, 05.10. 8:00 11 2 18 190° S
Mi, 05.10. 2:00 7 2 14 190° S
Di, 04.10. 20:00 6 1 26 170° S
Di, 04.10. 14:00 14 3 29 290° W
Di, 04.10. 8:00 17 3 33 290° W
Ortszeit Stärke Spitze Richtung
km/h Bft. km/h Grad Sektor
Do, 06.10. 6:30 17 3 33 250° W
Do, 06.10. 6:20 17 3 - 250° W
Do, 06.10. 6:10 14 3 - 250° W
Do, 06.10. 6:00 17 3 28 250° W
Do, 06.10. 5:50 17 3 - 250° W
Do, 06.10. 5:40 13 3 - 240° SW
Do, 06.10. 5:30 11 2 18 220° SW
Do, 06.10. 5:00 11 2 25 210° SW
Do, 06.10. 4:30 13 3 24 220° SW
Do, 06.10. 4:00 17 3 28 230° SW
Do, 06.10. 3:30 19 3 28 230° SW
Ortszeit Untergrenze Bedeckung Gattung
total tief tief mittel hoch
Do, 06.10. 2:00 - 0/8 0/8 - - -
Mi, 05.10. 20:00 - 0/8 0/8 - - -
Mi, 05.10. 14:00 5700 m 8/8 8/8 - - -
Mi, 05.10. 8:00 5400 m 8/8 8/8 - - -
Mi, 05.10. 2:00 6300 m 8/8 3/8 - - -
Di, 04.10. 20:00 10500 m 6/8 0/8 - - -
Di, 04.10. 14:00 660 m 8/8 6/8 - - -
Di, 04.10. 8:00 570 m 8/8 7/8 - - -
Ortszeit Bedeckungsgrad in Achtel und Wolkenuntergrenze
Do, 06.10. 6:30 2(1050m) 7(1290m)
Do, 06.10. 6:20 2(1050m) 7(1290m)
Do, 06.10. 6:10 8
Do, 06.10. 6:00 3(840m) 5(1500m) 8(2100m)
Do, 06.10. 5:50 3(840m) 5(1500m) 8(2100m)
Do, 06.10. 5:40 7
Do, 06.10. 5:30 7(2100m)
Do, 06.10. 5:00 2(1050m) 4(2400m)
Do, 06.10. 4:30 1(1140m)
Do, 06.10. 4:00 6(1140m)
Do, 06.10. 3:30 8(1170m)
Ortszeit Luftdruck NN (hPa) Tendenz (hPa in 3 Std.)
Do, 06.10. 2:00 1018 + 1,2
Mi, 05.10. 20:00 1016 - 0,1
Mi, 05.10. 14:00 1017 - 1,0
Mi, 05.10. 8:00 1018 - 0,9
Mi, 05.10. 2:00 1019 - 1,3
Di, 04.10. 20:00 1021 + 0,1
Di, 04.10. 14:00 1022 - 0,3
Di, 04.10. 8:00 1021 + 0,3
Ortszeit Luftdruck NN (hPa) Tendenz (hPa in 3 Std.)
Do, 06.10. 6:30 1021 + 2,3
Do, 06.10. 6:20 1021 keine Meldung
Do, 06.10. 6:10 1021 keine Meldung
Do, 06.10. 6:00 1020 + 1,8
Do, 06.10. 5:50 1020 keine Meldung
Do, 06.10. 5:40 1020 keine Meldung
Do, 06.10. 5:30 1019 + 1,2
Do, 06.10. 5:00 1019 + 1,1
Do, 06.10. 4:30 1019 + 1,1
Do, 06.10. 4:00 1019 + 1,2
Do, 06.10. 3:30 1018 + 1,2
Ortszeit Schneehöhe (cm)
Do, 06.10. 2:00 0
Mi, 05.10. 20:00 0
Mi, 05.10. 14:00 0
Mi, 05.10. 8:00 0
Mi, 05.10. 2:00 0
Di, 04.10. 20:00 0
Di, 04.10. 14:00 0
Di, 04.10. 8:00 0
Ortszeit Schneehöhe (cm)
Do, 06.10. 6:30 0
Do, 06.10. 6:20 0
Do, 06.10. 6:10 0
Do, 06.10. 6:00 0
Do, 06.10. 5:50 0
Do, 06.10. 5:40 0
Do, 06.10. 5:30 0
Do, 06.10. 5:00 0
Do, 06.10. 4:30 0
Do, 06.10. 4:00 0
Do, 06.10. 3:30 0
Link zu dieser Seite / Seite empfehlen

Das Wetter in ...